Sturgeon Bay, WI

2:59 PM CST on February 14, 2016 (GMT -0600)
City of Sturgeon Bay | | Change Station
CLOSE
Current Station
Personal Weather Station
Location: Sturgeon Bay, WI
Elevation: 633 ft
Nearby Weather Stations
Active Advisory: Winter Weather Advisory

Elev 633 ft 44.84 °N, 87.35 °W | Updated 3 minutes ago

Overcast
Overcast
22.5 °F
Feels Like 15 °F
N
6.3
Wind Variable Wind from East

Today
High -- | Low -- °F
--% Chance of Precip.
Yesterday
High -- | Low -- °F
Precip. -- in
Pressure 30.18 in
Visibility 10.0 miles
Clouds Overcast 2300 ft
Windchill 15 °F
Dew Point 12 °F
Humidity 65%
Rainfall 0.00 in
Snow Depth Not available.
6:52 AM 5:15 PM
Waxing Crescent, 45% visible
METAR KSUE 142055Z AUTO 17016G21KT 10SM OVC023 M07/M12 A3018 RMK AO1 57024
Pressure 30.18 in
Visibility 10.0 miles
Clouds Overcast 2300 ft
Windchill 15 °F
Dew Point 12 °F
Humidity 65%
Rainfall 0.00 in
Snow Depth Not available.
6:52 AM 5:15 PM
Waxing Crescent, 45% visible
METAR KSUE 142055Z AUTO 17016G21KT 10SM OVC023 M07/M12 A3018 RMK AO1 57024

10-Day Weather Forecast

Almanac

Astronomy

Feb. 14, 2016 Rise Set
Actual Time
Civil Twilight
Nautical Twilight
Astronomical Twilight
Moon
Length of Visible Light
Length of Day
Tomorrow will be .
, % of the Moon is Illuminated

Today's Extremes

State Highs State Lows

Community

WunderPhotos

Upload Photos

1,892,882 photos uploaded!

WunderBlog® & News

Nearby

Air Quality

  Air Quality AQ Index Pollutant
Not available.

Snow Depth

Station Depth Elevation

Earthquake Activity

City Distance Mag. Time & Date
Minimum magnitude displayed is 2.5.

Coastal Water Temperatures

Place Temperature

Stations

Nearby Weather Stations

Station Location Temp. Windchill Dew Point Humidity Wind Precip. Elev Updated Type
                   

Watches & Warnings

Winter Weather Advisory
Issued: 11:44 AM CST Feb. 14, 2016 – National Weather Service

... Winter Weather Advisory remains in effect until 8 am CST
Monday...

* a steady light snow will continue this afternoon through tonight
before diminishing early Monday.

* The heaviest snowfall rates should occur between noon Sunday
and 3 am Monday.

* Total snow accumulations of 3 to 5 inches are expected... with
locally higher amounts possible.

* Gusty south winds will cause some blowing and drifting snow
this afternoon and evening.

* Roads will become snow covered and slippery and visibilities
will be greatly reduced at times... so locally hazardous travel
conditions are anticipated.

Precautionary/preparedness actions...

A Winter Weather Advisory for snow means periods of snow will
cause primarily travel difficulties. Be prepared for snow covered
roads and limited visibilities... and use caution while driving.
The latest Wisconsin Road conditions can be obtained by calling
511.


AK